Terminal Aerodrome Forecast
Issued by NWS

Home | Current Version | Previous Version | Text Only | Print | Product List | Glossary On
Versions: 1 2 3 4 5 6 7 8 9 10 11 12 13 14 15 16 17 18 19 20 21 22
000
FTUS45 KREV 282300
TAFTVL
TAF
KTVL 282325Z 2900/2924 19012G22KT P6SM SCT100 BKN180 WS020/25040KT
     FM290800 19011G20KT P6SM VCSH SCT040 OVC080 WS010/25040KT
     FM291200 19010KT 3SM -RASN BKN020 OVC040
      TEMPO 2913/2917 1SM -SN OVC010
     FM291800 20018G28KT P6SM VCSH BKN040=

USA.gov is the U.S. government's official web portal to all federal, state and local government web resources and services.